Terminal Aerodrome Forecast
Issued by NWS

Home | Current Version | Previous Version | Text Only | Print | Product List | Glossary On
Versions: 1 2 3 4 5 6 7 8 9 10 11 12 13 14 15 16 17 18 19 20 21 22
000
FTUS44 KOHX 111130
TAFCKV
TAF
KCKV 111130Z 1112/1212 17008KT P6SM OVC060 WS020/20035KT
     FM111500 18010G22KT P6SM BKN050
     FM112200 18012G22KT P6SM VCSH OVC035
     FM120200 19015G25KT 4SM -RA BR VCTS OVC012CB
     FM120500 20015G25KT 2SM RA BR VCTS OVC007CB
     FM120900 28011KT 5SM -SHRA BR OVC003=

USA.gov is the U.S. government's official web portal to all federal, state and local government web resources and services.